C.s.rainbow — 3EFB2 — position and weather

sailwx.info

Track history (hours):
 
Tides and Currents Weather Stations Pressure Air Temp Water Temp Dewpoint Dewpoint Depression Visibility Wind Speed Wind Dir Waves Ship Positions

C.s.rainbow

Last reported at 2015-Apr-21 02:24 UTC. Time now 2015-Apr-21 11:37 UTC.
Position N 38°54' E 118°15'.

Length 190 m; draft 6.4 m.

Type: Cargo ship. MMSI: 371986000.

Date/timePositionNaut miles runAvg speedWind from/ knotsBaromVisibWave heightAir tempDewpointWater temp
2015-Apr-21 02:24N 38°54' E 118°15'17011.9
2015-Apr-20 12:10N 40°10' E 121°32'2112.2
2015-Apr-20 10:26N 40°21' E 121°55'0 0.0
2015-Apr-20 04:26N 40°21' E 121°55'0 0.2
2015-Apr-20 03:26N 40°21' E 121°55'0 0.1
2015-Apr-20 02:26N 40°21' E 121°55'0 0.0
2015-Apr-20 01:32N 40°21' E 121°55'0 0.0
2015-Apr-20 00:32N 40°21' E 121°55'0 0.0
2015-Apr-19 23:32N 40°21' E 121°55'0 0.0
2015-Apr-19 22:32N 40°21' E 121°55'0 0.0
2015-Apr-19 21:26N 40°21' E 121°55'0 0.1
2015-Apr-19 20:32N 40°21' E 121°55'0 0.1
2015-Apr-19 19:32N 40°21' E 121°55'0 0.0
2015-Apr-19 18:32N 40°21' E 121°55'0 0.0
2015-Apr-19 17:32N 40°21' E 121°55'0 0.1
2015-Apr-19 16:26N 40°21' E 121°55'0 0.1
2015-Apr-19 15:32N 40°21' E 121°55'0 0.0
2015-Apr-19 14:32N 40°21' E 121°55'0 0.0
2015-Apr-19 13:26N 40°21' E 121°55'0 0.0
2015-Apr-19 12:32N 40°21' E 121°55'0 0.0
2015-Apr-19 11:26N 40°21' E 121°55'0 0.1
2015-Apr-19 10:32N 40°21' E 121°55'0 0.0
2015-Apr-19 09:32N 40°21' E 121°55'0 0.0
2015-Apr-19 08:32N 40°21' E 121°55'1 0.7
2015-Apr-19 07:33N 40°21' E 121°55'8611.6
2015-Apr-19 00:09N 39°36' E 120°21'813.2
2015-Apr-18 23:33N 39°37' E 120°11'19 8.6
2015-Apr-18 21:20N 39°41' E 119°46'0 0.1
2015-Apr-18 20:32N 39°41' E 119°46'0 0.0
2015-Apr-18 19:32N 39°41' E 119°46'0 0.0
2015-Apr-18 18:32N 39°41' E 119°46'0 0.0
2015-Apr-18 17:32N 39°41' E 119°46'0 0.0
2015-Apr-18 11:08N 39°41' E 119°46'0 0.1
2015-Apr-18 10:32N 39°41' E 119°46'0 0.1
2015-Apr-18 09:32N 39°41' E 119°46'0 0.2
2015-Apr-18 08:32N 39°41' E 119°46'0 0.0
2015-Apr-18 07:32N 39°41' E 119°46'0 0.0
2015-Apr-18 06:32N 39°41' E 119°46'0 0.0
2015-Apr-18 05:32N 39°41' E 119°46'0 0.0
2015-Apr-18 04:32N 39°41' E 119°46'0 0.0
2015-Apr-18 03:32N 39°41' E 119°46'0 0.0
2015-Apr-17 21:32N 39°41' E 119°46'0 0.1
2015-Apr-17 20:32N 39°41' E 119°46'0 0.0
2015-Apr-17 19:26N 39°41' E 119°46'0 0.0
2015-Apr-17 15:14N 39°41' E 119°46'0 0.0
2015-Apr-17 14:32N 39°41' E 119°46'0 0.0
2015-Apr-17 13:32N 39°41' E 119°46'0 0.0
2015-Apr-17 12:32N 39°41' E 119°46'0 0.0
2015-Apr-17 11:26N 39°41' E 119°46'0 0.0
2015-Apr-17 10:26N 39°41' E 119°46'0 0.1
2015-Apr-17 09:32N 39°41' E 119°46'0 0.0
2015-Apr-17 08:32N 39°41' E 119°46'0 0.0
2015-Apr-17 07:32N 39°41' E 119°46'0 0.0
2015-Apr-17 06:32N 39°41' E 119°46'0 0.1
2015-Apr-17 05:14N 39°41' E 119°46'0 0.0
2015-Apr-17 04:32N 39°41' E 119°46'0 0.0
2015-Apr-17 03:32N 39°41' E 119°46'0 0.0
2015-Apr-17 02:32N 39°41' E 119°46'0 0.0
2015-Apr-17 01:33N 39°41' E 119°46'0 0.0
2015-Apr-17 00:33N 39°41' E 119°46'0 0.1
2015-Apr-16 23:34N 39°41' E 119°46'0 0.1
2015-Apr-16 22:33N 39°41' E 119°46'0 0.0
2015-Apr-16 21:33N 39°41' E 119°46'0 0.0
2015-Apr-16 20:33N 39°41' E 119°46'0 0.1
2015-Apr-16 19:33N 39°41' E 119°46'8 8.3
2015-Apr-16 18:33N 39°48' E 119°40'8 7.4
2015-Apr-16 17:31N 39°54' E 119°35'0 0.0
2015-Apr-16 16:25N 39°54' E 119°35'0 0.0
2015-Apr-16 15:31N 39°54' E 119°35'0 0.0
2015-Apr-16 14:19N 39°54' E 119°35'0 0.0
2015-Apr-16 13:31N 39°54' E 119°35'0 0.0
2015-Apr-16 12:25N 39°54' E 119°35'0 0.0
2015-Apr-16 11:31N 39°54' E 119°35'0 0.0
2015-Apr-16 10:31N 39°54' E 119°35'0 0.0
2015-Apr-16 09:31N 39°54' E 119°35'0 0.0
2015-Apr-16 07:25N 39°54' E 119°35'0 0.0
2015-Apr-16 03:19N 39°54' E 119°35'0 0.0
2015-Apr-16 02:31N 39°54' E 119°35'0 0.0
2015-Apr-16 01:31N 39°54' E 119°35'0 0.0
2015-Apr-16 00:19N 39°54' E 119°35'0 0.0
2015-Apr-15 19:31N 39°54' E 119°35'0 0.0
2015-Apr-15 18:25N 39°54' E 119°35'0 0.0
2015-Apr-15 17:31N 39°54' E 119°35'0 0.0
2015-Apr-15 16:31N 39°54' E 119°35'0 0.0
2015-Apr-15 15:31N 39°54' E 119°35'0 0.0
2015-Apr-15 14:31N 39°54' E 119°35'0 0.0
2015-Apr-15 13:31N 39°54' E 119°35'0 0.0
2015-Apr-15 12:19N 39°54' E 119°35'0 0.0
2015-Apr-15 11:32N 39°54' E 119°35'0 0.0
2015-Apr-15 10:31N 39°54' E 119°35'0 0.0
2015-Apr-15 09:25N 39°54' E 119°35'0 0.0
2015-Apr-15 08:31N 39°54' E 119°35'0 0.0
2015-Apr-15 07:31N 39°54' E 119°35'0 0.0
2015-Apr-15 06:31N 39°54' E 119°35'0 0.0
2015-Apr-15 05:31N 39°54' E 119°35'0 0.0
2015-Apr-15 04:31N 39°54' E 119°35'0 0.0
2015-Apr-15 03:07N 39°54' E 119°35'0 0.0
2015-Apr-15 02:25N 39°54' E 119°35'0 0.0
2015-Apr-15 01:31N 39°54' E 119°35'0 0.0
2015-Apr-15 00:25N 39°54' E 119°35'0 0.0
2015-Apr-14 23:31N 39°54' E 119°35'0 0.0
2015-Apr-14 22:31N 39°54' E 119°35'0 0.0
2015-Apr-14 21:31N 39°54' E 119°35'0 0.0
2015-Apr-14 20:31N 39°54' E 119°35'0 0.0
2015-Apr-14 19:25N 39°54' E 119°35'0 0.0
2015-Apr-14 18:31N 39°54' E 119°35'0 0.0
2015-Apr-14 17:31N 39°54' E 119°35'0 0.0
2015-Apr-14 16:31N 39°54' E 119°35'0 0.0
2015-Apr-14 15:31N 39°54' E 119°35'0 0.0
2015-Apr-14 14:25N 39°54' E 119°35'0 0.0
2015-Apr-14 13:19N 39°54' E 119°35'0 0.0
2015-Apr-14 12:31N 39°54' E 119°35'0 0.0
2015-Apr-14 10:13N 39°54' E 119°35'0 0.0
2015-Apr-14 09:19N 39°54' E 119°35'0 0.0
2015-Apr-14 08:19N 39°54' E 119°35'0 0.0
2015-Apr-14 07:25N 39°54' E 119°35'0 0.0
2015-Apr-14 06:13N 39°54' E 119°35'0 0.0
2015-Apr-14 05:10N 39°54' E 119°35'0 0.5
2015-Apr-14 04:33N 39°54' E 119°35'6 5.8
2015-Apr-14 03:33N 39°50' E 119°40'1212.1
2015-Apr-14 02:33N 39°38' E 119°40'11710.6
2015-Apr-13 15:31N 38°25' E 121°37'1312.5
2015-Apr-13 14:28N 38°25' E 121°54'6612.2
2015-Apr-13 09:06N 38°03' E 123°12'713.0
2015-Apr-13 08:33N 37°58' E 123°19'32612.9
2015-Apr-12 07:17N 32°33' E 123°17'1013.1
2015-Apr-12 06:32N 32°23' E 123°16'6513.0
2015-Apr-12 01:33N 31°20' E 123°00'1313.5
2015-Apr-12 00:33N 31°09' E 122°50'1313.4
2015-Apr-11 23:33N 31°06' E 122°35'1212.4
2015-Apr-11 22:33N 31°06' E 122°20'1414.2
2015-Apr-11 21:34N 31°13' E 122°06'1212.4
2015-Apr-11 20:33N 31°16' E 121°52'1111.0
2015-Apr-11 19:34N 31°21' E 121°40'1110.6
2015-Apr-11 18:33N 31°26' E 121°30'1010.3
2015-Apr-11 17:33N 31°33' E 121°20'1414.1
2015-Apr-11 16:33N 31°42' E 121°08'1313.3
2015-Apr-11 15:33N 31°49' E 120°55'1110.8
2015-Apr-11 14:32N 31°59' E 120°50'9 9.3
2015-Apr-11 13:33N 31°60' E 120°39'1111.1
2015-Apr-11 12:33N 32°04' E 120°27'1212.3
2015-Apr-11 11:33N 31°56' E 120°15'1212.0
2015-Apr-11 10:33N 31°58' E 120°01'1413.9
2015-Apr-11 09:33N 32°10' E 119°53'  
Track history (hours):
 
Tides and Currents Weather Stations Pressure Air Temp Water Temp Dewpoint Dewpoint Depression Visibility Wind Speed Wind Dir Waves Ship Positions

C.s.rainbow

Last reported at 2015-Apr-21 02:24 UTC. Time now 2015-Apr-21 11:37 UTC.
Position N 38°54' E 118°15'.

Length 190 m; draft 6.4 m.

Type: Cargo ship. MMSI: 371986000.

Date/timePositionNaut miles runAvg speedWind from/ knotsBaromVisibWave heightAir tempDewpointWater temp
2015-Apr-21 02:24N 38°54' E 118°15'17011.9
2015-Apr-20 12:10N 40°10' E 121°32'2112.2
2015-Apr-20 10:26N 40°21' E 121°55'0 0.0
2015-Apr-20 04:26N 40°21' E 121°55'0 0.2
2015-Apr-20 03:26N 40°21' E 121°55'0 0.1
2015-Apr-20 02:26N 40°21' E 121°55'0 0.0
2015-Apr-20 01:32N 40°21' E 121°55'0 0.0
2015-Apr-20 00:32N 40°21' E 121°55'0 0.0
2015-Apr-19 23:32N 40°21' E 121°55'0 0.0
2015-Apr-19 22:32N 40°21' E 121°55'0 0.0
2015-Apr-19 21:26N 40°21' E 121°55'0 0.1
2015-Apr-19 20:32N 40°21' E 121°55'0 0.1
2015-Apr-19 19:32N 40°21' E 121°55'0 0.0
2015-Apr-19 18:32N 40°21' E 121°55'0 0.0
2015-Apr-19 17:32N 40°21' E 121°55'0 0.1
2015-Apr-19 16:26N 40°21' E 121°55'0 0.1
2015-Apr-19 15:32N 40°21' E 121°55'0 0.0
2015-Apr-19 14:32N 40°21' E 121°55'0 0.0
2015-Apr-19 13:26N 40°21' E 121°55'0 0.0
2015-Apr-19 12:32N 40°21' E 121°55'0 0.0
2015-Apr-19 11:26N 40°21' E 121°55'0 0.1
2015-Apr-19 10:32N 40°21' E 121°55'0 0.0
2015-Apr-19 09:32N 40°21' E 121°55'0 0.0
2015-Apr-19 08:32N 40°21' E 121°55'1 0.7
2015-Apr-19 07:33N 40°21' E 121°55'8611.6
2015-Apr-19 00:09N 39°36' E 120°21'813.2
2015-Apr-18 23:33N 39°37' E 120°11'19 8.6
2015-Apr-18 21:20N 39°41' E 119°46'0 0.1
2015-Apr-18 20:32N 39°41' E 119°46'0 0.0
2015-Apr-18 19:32N 39°41' E 119°46'0 0.0
2015-Apr-18 18:32N 39°41' E 119°46'0 0.0
2015-Apr-18 17:32N 39°41' E 119°46'0 0.0
2015-Apr-18 11:08N 39°41' E 119°46'0 0.1
2015-Apr-18 10:32N 39°41' E 119°46'0 0.1
2015-Apr-18 09:32N 39°41' E 119°46'0 0.2
2015-Apr-18 08:32N 39°41' E 119°46'0 0.0
2015-Apr-18 07:32N 39°41' E 119°46'0 0.0
2015-Apr-18 06:32N 39°41' E 119°46'0 0.0
2015-Apr-18 05:32N 39°41' E 119°46'0 0.0
2015-Apr-18 04:32N 39°41' E 119°46'0 0.0
2015-Apr-18 03:32N 39°41' E 119°46'0 0.0
2015-Apr-17 21:32N 39°41' E 119°46'0 0.1
2015-Apr-17 20:32N 39°41' E 119°46'0 0.0
2015-Apr-17 19:26N 39°41' E 119°46'0 0.0
2015-Apr-17 15:14N 39°41' E 119°46'0 0.0
2015-Apr-17 14:32N 39°41' E 119°46'0 0.0
2015-Apr-17 13:32N 39°41' E 119°46'0 0.0
2015-Apr-17 12:32N 39°41' E 119°46'0 0.0
2015-Apr-17 11:26N 39°41' E 119°46'0 0.0
2015-Apr-17 10:26N 39°41' E 119°46'0 0.1
2015-Apr-17 09:32N 39°41' E 119°46'0 0.0
2015-Apr-17 08:32N 39°41' E 119°46'0 0.0
2015-Apr-17 07:32N 39°41' E 119°46'0 0.0
2015-Apr-17 06:32N 39°41' E 119°46'0 0.1
2015-Apr-17 05:14N 39°41' E 119°46'0 0.0
2015-Apr-17 04:32N 39°41' E 119°46'0 0.0
2015-Apr-17 03:32N 39°41' E 119°46'0 0.0
2015-Apr-17 02:32N 39°41' E 119°46'0 0.0
2015-Apr-17 01:33N 39°41' E 119°46'0 0.0
2015-Apr-17 00:33N 39°41' E 119°46'0 0.1
2015-Apr-16 23:34N 39°41' E 119°46'0 0.1
2015-Apr-16 22:33N 39°41' E 119°46'0 0.0
2015-Apr-16 21:33N 39°41' E 119°46'0 0.0
2015-Apr-16 20:33N 39°41' E 119°46'0 0.1
2015-Apr-16 19:33N 39°41' E 119°46'8 8.3
2015-Apr-16 18:33N 39°48' E 119°40'8 7.4
2015-Apr-16 17:31N 39°54' E 119°35'0 0.0
2015-Apr-16 16:25N 39°54' E 119°35'0 0.0
2015-Apr-16 15:31N 39°54' E 119°35'0 0.0
2015-Apr-16 14:19N 39°54' E 119°35'0 0.0
2015-Apr-16 13:31N 39°54' E 119°35'0 0.0
2015-Apr-16 12:25N 39°54' E 119°35'0 0.0
2015-Apr-16 11:31N 39°54' E 119°35'0 0.0
2015-Apr-16 10:31N 39°54' E 119°35'0 0.0
2015-Apr-16 09:31N 39°54' E 119°35'0 0.0
2015-Apr-16 07:25N 39°54' E 119°35'0 0.0
2015-Apr-16 03:19N 39°54' E 119°35'0 0.0
2015-Apr-16 02:31N 39°54' E 119°35'0 0.0
2015-Apr-16 01:31N 39°54' E 119°35'0 0.0
2015-Apr-16 00:19N 39°54' E 119°35'0 0.0
2015-Apr-15 19:31N 39°54' E 119°35'0 0.0
2015-Apr-15 18:25N 39°54' E 119°35'0 0.0
2015-Apr-15 17:31N 39°54' E 119°35'0 0.0
2015-Apr-15 16:31N 39°54' E 119°35'0 0.0
2015-Apr-15 15:31N 39°54' E 119°35'0 0.0
2015-Apr-15 14:31N 39°54' E 119°35'0 0.0
2015-Apr-15 13:31N 39°54' E 119°35'0 0.0
2015-Apr-15 12:19N 39°54' E 119°35'0 0.0
2015-Apr-15 11:32N 39°54' E 119°35'0 0.0
2015-Apr-15 10:31N 39°54' E 119°35'0 0.0
2015-Apr-15 09:25N 39°54' E 119°35'0 0.0
2015-Apr-15 08:31N 39°54' E 119°35'0 0.0
2015-Apr-15 07:31N 39°54' E 119°35'0 0.0
2015-Apr-15 06:31N 39°54' E 119°35'0 0.0
2015-Apr-15 05:31N 39°54' E 119°35'0 0.0
2015-Apr-15 04:31N 39°54' E 119°35'0 0.0
2015-Apr-15 03:07N 39°54' E 119°35'0 0.0
2015-Apr-15 02:25N 39°54' E 119°35'0 0.0
2015-Apr-15 01:31N 39°54' E 119°35'0 0.0
2015-Apr-15 00:25N 39°54' E 119°35'0 0.0
2015-Apr-14 23:31N 39°54' E 119°35'0 0.0
2015-Apr-14 22:31N 39°54' E 119°35'0 0.0
2015-Apr-14 21:31N 39°54' E 119°35'0 0.0
2015-Apr-14 20:31N 39°54' E 119°35'0 0.0
2015-Apr-14 19:25N 39°54' E 119°35'0 0.0
2015-Apr-14 18:31N 39°54' E 119°35'0 0.0
2015-Apr-14 17:31N 39°54' E 119°35'0 0.0
2015-Apr-14 16:31N 39°54' E 119°35'0 0.0
2015-Apr-14 15:31N 39°54' E 119°35'0 0.0
2015-Apr-14 14:25N 39°54' E 119°35'0 0.0
2015-Apr-14 13:19N 39°54' E 119°35'0 0.0
2015-Apr-14 12:31N 39°54' E 119°35'0 0.0
2015-Apr-14 10:13N 39°54' E 119°35'0 0.0
2015-Apr-14 09:19N 39°54' E 119°35'0 0.0
2015-Apr-14 08:19N 39°54' E 119°35'0 0.0
2015-Apr-14 07:25N 39°54' E 119°35'0 0.0
2015-Apr-14 06:13N 39°54' E 119°35'0 0.0
2015-Apr-14 05:10N 39°54' E 119°35'0 0.5
2015-Apr-14 04:33N 39°54' E 119°35'6 5.8
2015-Apr-14 03:33N 39°50' E 119°40'1212.1
2015-Apr-14 02:33N 39°38' E 119°40'11710.6
2015-Apr-13 15:31N 38°25' E 121°37'1312.5
2015-Apr-13 14:28N 38°25' E 121°54'6612.2
2015-Apr-13 09:06N 38°03' E 123°12'713.0
2015-Apr-13 08:33N 37°58' E 123°19'32612.9
2015-Apr-12 07:17N 32°33' E 123°17'1013.1
2015-Apr-12 06:32N 32°23' E 123°16'6513.0
2015-Apr-12 01:33N 31°20' E 123°00'1313.5
2015-Apr-12 00:33N 31°09' E 122°50'1313.4
2015-Apr-11 23:33N 31°06' E 122°35'1212.4
2015-Apr-11 22:33N 31°06' E 122°20'1414.2
2015-Apr-11 21:34N 31°13' E 122°06'1212.4
2015-Apr-11 20:33N 31°16' E 121°52'1111.0
2015-Apr-11 19:34N 31°21' E 121°40'1110.6
2015-Apr-11 18:33N 31°26' E 121°30'1010.3
2015-Apr-11 17:33N 31°33' E 121°20'1414.1
2015-Apr-11 16:33N 31°42' E 121°08'1313.3
2015-Apr-11 15:33N 31°49' E 120°55'1110.8
2015-Apr-11 14:32N 31°59' E 120°50'9 9.3
2015-Apr-11 13:33N 31°60' E 120°39'1111.1
2015-Apr-11 12:33N 32°04' E 120°27'1212.3
2015-Apr-11 11:33N 31°56' E 120°15'1212.0
2015-Apr-11 10:33N 31°58' E 120°01'1413.9
2015-Apr-11 09:33N 32°10' E 119°53'  

Dump ship's entire track history